Terminal Aerodrome Forecast
Issued by NWS Louisville, KY

Home | Current Version | Previous Version | Text Only | Print | Product List | Glossary On
Versions: 1 2 3 4 5 6 7 8 9 10 11 12 13
160
FTUS43 KLMK 232320
TAFLEX
TAF
KLEX 232320Z 2400/2424 04005KT P6SM FEW250
     FM240900 VRB03KT 6SM BR SKC
      TEMPO 2410/2413 4SM BR
     FM241300 12005KT P6SM SKC=

USA.gov is the U.S. government's official web portal to all federal, state and local government web resources and services.